Time;durP1;ratioP1;P1;durP2;ratioP2;P2;SDS_P1;SDS_P2;PMS_P1;PMS_P2;Temp;Humidity;BMP_temperature;BMP_pressure;BME280_temperature;BME280_humidity;BME280_pressure;Samples;Min_cycle;Max_cycle;Signal;HPM_P1;HPM_P2
2022/12/12 00:00:46;;;;;;;16.05;7.28;;;-2.20;99.90;;;;;;4978370;28;20082;-73
2022/12/12 00:03:15;;;;;;;13.45;6.80;;;-2.20;99.90;;;;;;4978594;28;20034;-74
2022/12/12 00:05:44;;;;;;;14.65;6.72;;;-2.20;99.90;;;;;;4977998;28;20089;-75
2022/12/12 00:08:09;;;;;;;14.50;8.05;;;-2.20;99.90;;;;;;4994911;28;20072;-74
2022/12/12 00:10:41;;;;;;;14.95;7.00;;;-2.20;99.90;;;;;;4978176;28;20075;-74
2022/12/12 00:13:07;;;;;;;15.60;6.25;;;-2.20;99.90;;;;;;4975227;28;20049;-75
2022/12/12 00:15:32;;;;;;;10.45;5.65;;;-2.20;99.90;;;;;;4977800;28;20517;-74
2022/12/12 00:18:01;;;;;;;12.70;6.13;;;-2.20;99.90;;;;;;4974724;28;20484;-74
2022/12/12 00:20:38;;;;;;;12.68;6.15;;;-2.20;99.90;;;;;;4991021;28;20122;-74
2022/12/12 00:23:04;;;;;;;14.20;6.30;;;-2.20;99.90;;;;;;4990911;28;20034;-75
2022/12/12 00:25:29;;;;;;;11.25;5.68;;;-2.10;99.90;;;;;;4975766;28;20031;-74
2022/12/12 00:27:55;;;;;;;12.98;6.28;;;-2.10;99.90;;;;;;4979824;28;20038;-75
2022/12/12 00:30:21;;;;;;;13.95;6.32;;;-2.10;99.90;;;;;;4982602;28;20037;-74
2022/12/12 00:32:58;;;;;;;16.05;6.68;;;-2.10;99.90;;;;;;4975708;28;20023;-75
2022/12/12 00:35:27;;;;;;;11.48;5.70;;;-2.10;99.90;;;;;;4991481;28;20052;-75
2022/12/12 00:37:53;;;;;;;13.10;6.60;;;-2.10;99.90;;;;;;4980463;28;20498;-75
2022/12/12 00:40:21;;;;;;;11.45;5.70;;;-2.10;99.90;;;;;;4980178;28;20058;-75
2022/12/12 00:42:50;;;;;;;13.10;6.80;;;-2.10;99.90;;;;;;4984082;28;20042;-75
2022/12/12 00:45:21;;;;;;;12.68;6.43;;;-2.10;99.90;;;;;;4991213;28;20034;-74
2022/12/12 00:47:54;;;;;;;16.98;6.20;;;-2.20;99.90;;;;;;4998587;28;20058;-74
2022/12/12 00:50:20;;;;;;;16.20;7.25;;;-2.20;99.90;;;;;;4984485;28;20109;-75
2022/12/12 00:52:46;;;;;;;15.48;6.95;;;-2.20;99.90;;;;;;4975488;28;20103;-75
2022/12/12 00:55:14;;;;;;;14.80;7.25;;;-2.30;99.90;;;;;;4974718;28;20031;-75
2022/12/12 00:57:43;;;;;;;14.48;6.55;;;-2.30;99.90;;;;;;4976156;28;20030;-75
2022/12/12 01:00:13;;;;;;;11.75;6.68;;;-2.30;99.90;;;;;;4975966;28;20036;-75
2022/12/12 01:02:42;;;;;;;12.93;6.80;;;-2.40;99.90;;;;;;4972429;28;20047;-75
2022/12/12 01:05:09;;;;;;;16.63;7.65;;;-2.40;99.90;;;;;;4989653;28;20034;-74
2022/12/12 01:07:35;;;;;;;13.73;6.63;;;-2.40;99.90;;;;;;4971457;28;20097;-75
2022/12/12 01:10:03;;;;;;;14.90;7.07;;;-2.40;99.90;;;;;;4969556;28;20070;-75
2022/12/12 01:12:35;;;;;;;16.92;7.80;;;-2.50;99.90;;;;;;4966637;28;20030;-75
2022/12/12 01:15:08;;;;;;;18.08;7.13;;;-2.50;99.90;;;;;;4976107;28;20094;-75
2022/12/12 01:17:37;;;;;;;13.25;7.45;;;-2.50;99.90;;;;;;4972845;28;20035;-75
2022/12/12 01:20:16;;;;;;;17.67;6.95;;;-2.50;99.90;;;;;;4971954;28;20039;-75
2022/12/12 01:22:42;;;;;;;12.20;6.72;;;-2.60;99.90;;;;;;4967631;28;20487;-75
2022/12/12 01:25:10;;;;;;;16.50;6.88;;;-2.60;99.90;;;;;;4973579;28;20034;-75
2022/12/12 01:27:35;;;;;;;16.90;7.43;;;-2.60;99.90;;;;;;4975341;28;20042;-74
2022/12/12 01:30:01;;;;;;;15.10;7.18;;;-2.60;99.90;;;;;;4976693;28;20046;-74
2022/12/12 01:32:30;;;;;;;18.77;7.20;;;-2.60;99.90;;;;;;4989853;28;20026;-75
2022/12/12 01:35:06;;;;;;;14.63;6.85;;;-2.60;99.90;;;;;;4990107;28;20114;-75
2022/12/12 01:37:31;;;;;;;14.98;7.50;;;-2.70;99.90;;;;;;4972891;28;20030;-74
2022/12/12 01:40:00;;;;;;;14.43;7.68;;;-2.70;99.90;;;;;;4973347;28;20059;-75
2022/12/12 01:42:28;;;;;;;15.05;7.25;;;-2.70;99.90;;;;;;4981923;28;20105;-75
2022/12/12 01:44:54;;;;;;;17.65;8.00;;;-2.70;99.90;;;;;;4985098;28;20031;-75
2022/12/12 01:47:23;;;;;;;15.48;7.05;;;-2.70;99.90;;;;;;4988684;28;20089;-75
2022/12/12 01:50:03;;;;;;;14.52;7.28;;;-2.70;99.90;;;;;;4974359;28;20026;-75
2022/12/12 01:52:42;;;;;;;15.63;6.85;;;-2.80;99.90;;;;;;4978784;28;20031;-75
2022/12/12 01:55:16;;;;;;;14.88;6.28;;;-2.80;99.90;;;;;;4969932;28;20498;-74
2022/12/12 01:57:45;;;;;;;17.90;8.15;;;-2.80;99.90;;;;;;4987921;28;20089;-73
2022/12/12 02:00:14;;;;;;;16.33;8.05;;;-2.80;99.90;;;;;;4972497;28;20115;-74
2022/12/12 02:02:43;;;;;;;15.43;7.72;;;-2.80;99.90;;;;;;4969851;28;20361;-74
2022/12/12 02:05:31;;;;;;;14.05;7.30;;;-2.80;99.90;;;;;;4987441;28;20034;-74
2022/12/12 02:08:00;;;;;;;20.08;9.50;;;-2.80;99.90;;;;;;4974942;28;20097;-74
2022/12/12 02:10:26;;;;;;;21.70;10.68;;;-2.80;99.90;;;;;;4975046;28;20026;-74
2022/12/12 02:12:58;;;;;;;23.67;10.57;;;-2.80;99.90;;;;;;4972997;28;20420;-74
2022/12/12 02:15:29;;;;;;;26.13;12.32;;;-2.90;99.90;;;;;;4972302;28;20031;-74
2022/12/12 02:18:07;;;;;;;28.05;13.45;;;-2.80;99.90;;;;;;4988782;28;20026;-74
2022/12/12 02:20:53;;;;;;;29.77;13.18;;;-2.90;99.90;;;;;;4971982;28;20090;-74
2022/12/12 02:23:46;;;;;;;29.85;13.98;;;-2.80;99.90;;;;;;4974573;28;20026;-74
2022/12/12 02:26:42;;;;;;;26.23;13.68;;;-2.90;99.90;;;;;;4973530;28;20035;-74
2022/12/12 02:29:29;;;;;;;24.92;12.68;;;-2.90;99.90;;;;;;4972448;28;20031;-74
2022/12/12 02:32:23;;;;;;;23.88;12.32;;;-2.90;99.90;;;;;;4990755;28;20094;-74
2022/12/12 02:35:02;;;;;;;28.33;12.48;;;-2.80;99.90;;;;;;4978381;28;20476;-74
2022/12/12 02:37:37;;;;;;;25.42;12.25;;;-2.90;99.90;;;;;;4972553;28;20039;-74
2022/12/12 02:40:21;;;;;;;19.88;9.65;;;-2.80;99.90;;;;;;4974064;28;20468;-74
2022/12/12 02:43:06;;;;;;;20.45;8.90;;;-3.00;99.90;;;;;;4996148;28;20397;-74
2022/12/12 02:45:48;;;;;;;22.33;10.05;;;-3.10;99.90;;;;;;4970910;28;20031;-74
2022/12/12 02:48:19;;;;;;;20.45;10.75;;;-3.10;99.90;;;;;;4970105;28;20093;-74
2022/12/12 02:50:48;;;;;;;23.48;10.68;;;-3.20;99.90;;;;;;4973564;28;20022;-74
2022/12/12 02:53:21;;;;;;;19.58;9.57;;;-3.20;99.90;;;;;;4973380;28;20023;-74
2022/12/12 02:55:48;;;;;;;14.68;8.15;;;-3.20;99.90;;;;;;4980306;28;20484;-74
2022/12/12 02:58:15;;;;;;;17.35;8.18;;;-3.20;99.90;;;;;;4974298;28;20050;-75
2022/12/12 03:01:10;;;;;;;17.95;7.72;;;-3.20;99.90;;;;;;4992006;28;20034;-75
2022/12/12 03:10:09;;;;;;;17.57;6.60;;;-3.30;99.90;;;;;;4975500;28;20030;-75
2022/12/12 03:13:05;;;;;;;15.57;7.43;;;-3.30;99.90;;;;;;4990445;28;20483;-75
2022/12/12 03:15:59;;;;;;;24.00;8.68;;;-3.30;99.90;;;;;;4973320;28;20030;-74
2022/12/12 03:18:32;;;;;;;14.73;6.78;;;-3.40;99.90;;;;;;4973626;28;20038;-75
2022/12/12 03:21:24;;;;;;;15.27;6.93;;;-3.40;99.90;;;;;;4974220;28;20510;-75
2022/12/12 03:24:00;;;;;;;16.83;7.50;;;-3.40;99.90;;;;;;4976605;28;20023;-74
2022/12/12 03:26:35;;;;;;;16.00;6.85;;;-3.40;99.90;;;;;;4978941;28;20026;-74
2022/12/12 03:29:08;;;;;;;19.95;8.00;;;-3.50;99.90;;;;;;4979506;28;20113;-74
2022/12/12 03:31:38;;;;;;;16.87;7.67;;;-3.50;99.90;;;;;;4997316;28;20026;-74
2022/12/12 03:34:13;;;;;;;16.35;7.78;;;-3.50;99.90;;;;;;4968486;28;20485;-74
2022/12/12 03:36:47;;;;;;;15.13;7.00;;;-3.50;99.90;;;;;;4993440;28;20031;-74
2022/12/12 03:39:17;;;;;;;;;;;-3.60;99.90;;;;;;4975443;28;20031;-74
2022/12/12 03:41:49;;;;;;;18.17;7.03;;;-3.60;99.90;;;;;;4994034;28;19948;-74
2022/12/12 03:44:19;;;;;;;14.43;7.25;;;-3.60;99.90;;;;;;4981429;28;20058;-74
2022/12/12 03:46:53;;;;;;;16.90;6.90;;;-3.60;99.90;;;;;;4979881;28;20033;-74
2022/12/12 03:49:45;;;;;;;14.63;6.88;;;-3.60;99.90;;;;;;4977640;28;20054;-74
2022/12/12 03:52:25;;;;;;;17.77;7.57;;;-3.60;99.90;;;;;;4943848;28;20480;-74
2022/12/12 03:54:54;;;;;;;19.40;7.25;;;-3.60;99.90;;;;;;4990192;28;20027;-74
2022/12/12 03:57:33;;;;;;;16.00;7.40;;;-3.70;99.90;;;;;;4976160;28;20030;-74
2022/12/12 04:00:12;;;;;;;15.48;7.07;;;-3.70;99.90;;;;;;4973675;28;20476;-74
2022/12/12 04:02:57;;;;;;;19.13;8.07;;;-3.60;99.90;;;;;;4991287;28;20092;-74
2022/12/12 04:12:57;;;;;;;20.20;8.40;;;-3.70;99.90;;;;;;4977151;28;20455;-74
2022/12/12 04:14:50;;;;;;;19.23;7.47;;;-3.70;99.90;;;;;;4975591;28;20038;-75
2022/12/12 04:17:38;;;;;;;18.83;7.65;;;-3.70;99.90;;;;;;4969954;28;20081;-76
2022/12/12 04:23:17;;;;;;;20.13;8.07;;;-3.80;99.90;;;;;;4974936;28;20097;-74
2022/12/12 04:29:00;;;;;;;18.50;6.95;;;-3.80;99.90;;;;;;4980673;28;20120;-77
2022/12/12 04:31:27;;;;;;;18.75;7.65;;;-3.80;99.90;;;;;;4986343;28;20026;-76
2022/12/12 04:33:59;;;;;;;18.17;7.55;;;-3.80;99.90;;;;;;4973915;28;20463;-76
2022/12/12 04:36:25;;;;;;;19.50;7.68;;;-3.80;99.90;;;;;;4966591;28;20517;-76
2022/12/12 04:38:52;;;;;;;17.20;7.53;;;-3.80;99.90;;;;;;4970891;28;20041;-74
2022/12/12 04:41:20;;;;;;;18.27;8.80;;;-3.80;99.90;;;;;;4986173;28;20031;-75
2022/12/12 04:43:48;;;;;;;22.20;8.52;;;-3.80;99.90;;;;;;4975087;28;20491;-75
2022/12/12 04:46:17;;;;;;;15.18;7.45;;;-3.80;99.90;;;;;;4989193;28;20027;-75
2022/12/12 04:48:59;;;;;;;22.60;7.65;;;-3.80;99.90;;;;;;4986949;28;20121;-74
2022/12/12 04:51:31;;;;;;;21.90;8.07;;;-3.80;99.90;;;;;;4973323;28;20137;-75
2022/12/12 04:54:08;;;;;;;19.05;8.80;;;-3.80;99.90;;;;;;4974496;28;20089;-75
2022/12/12 04:56:38;;;;;;;16.10;8.20;;;-3.80;99.90;;;;;;4973878;28;20058;-75
2022/12/12 04:59:05;;;;;;;22.10;7.90;;;-3.90;99.90;;;;;;4986145;28;20023;-75
2022/12/12 05:01:51;;;;;;;23.08;8.40;;;-3.90;99.90;;;;;;4974076;28;20444;-76
2022/12/12 05:04:47;;;;;;;18.65;8.70;;;-3.90;99.90;;;;;;4975372;28;20038;-75
2022/12/12 05:07:38;;;;;;;20.85;9.43;;;-3.90;99.90;;;;;;4954560;28;20040;-76
2022/12/12 05:10:11;;;;;;;17.52;7.60;;;-3.90;99.90;;;;;;4978452;28;20031;-75
2022/12/12 05:13:00;;;;;;;22.60;9.32;;;-3.90;99.90;;;;;;4973495;28;20031;-74
2022/12/12 05:15:27;;;;;;;24.73;10.13;;;-3.90;99.90;;;;;;4963697;28;20043;-76
2022/12/12 05:18:06;;;;;;;21.17;8.90;;;-3.90;99.90;;;;;;4990998;28;20035;-75
2022/12/12 05:20:41;;;;;;;29.55;9.63;;;-3.90;99.90;;;;;;4973486;28;20030;-76
2022/12/12 05:23:07;;;;;;;18.58;8.32;;;-3.90;99.90;;;;;;4960188;28;20117;-75
2022/12/12 05:25:33;;;;;;;21.48;9.73;;;-3.90;99.90;;;;;;4974829;28;20039;-75
2022/12/12 05:27:58;;;;;;;18.35;8.32;;;-3.80;99.90;;;;;;4982001;23;20101;-78
2022/12/12 05:30:24;;;;;;;18.10;8.48;;;-3.80;99.90;;;;;;4983609;28;20566;-78
2022/12/12 05:32:50;;;;;;;25.02;9.45;;;-3.90;99.90;;;;;;4985588;28;20018;-79
2022/12/12 05:35:17;;;;;;;22.67;9.10;;;-3.90;99.90;;;;;;4985186;28;20023;-78
2022/12/12 05:37:43;;;;;;;22.75;9.32;;;-3.90;99.90;;;;;;4984480;28;20097;-79
2022/12/12 05:40:11;;;;;;;21.67;8.88;;;-3.90;99.90;;;;;;4985776;28;20038;-79
2022/12/12 05:42:37;;;;;;;22.40;8.93;;;-3.80;99.90;;;;;;4984878;28;20089;-79
2022/12/12 05:45:04;;;;;;;22.77;8.88;;;-3.80;99.90;;;;;;4988117;28;20479;-78
2022/12/12 05:47:30;;;;;;;23.67;9.15;;;-3.90;99.90;;;;;;4980400;28;20104;-79
2022/12/12 05:49:55;;;;;;;22.02;9.05;;;-3.90;99.90;;;;;;4983507;28;20043;-79
2022/12/12 05:52:21;;;;;;;16.25;8.18;;;-3.90;99.90;;;;;;4990171;28;20470;-79
2022/12/12 05:54:46;;;;;;;19.00;9.50;;;-3.90;99.90;;;;;;4984473;28;20027;-81
2022/12/12 05:57:12;;;;;;;24.40;9.02;;;-3.90;99.90;;;;;;4983451;28;20494;-80
2022/12/12 05:59:38;;;;;;;22.10;9.30;;;-3.80;99.90;;;;;;4984203;28;20027;-80
2022/12/12 06:02:03;;;;;;;22.65;9.13;;;-3.80;99.90;;;;;;4989744;28;20627;-80
2022/12/12 06:04:29;;;;;;;23.60;10.18;;;-3.70;99.90;;;;;;4983276;28;20054;-81
2022/12/12 06:06:55;;;;;;;20.58;9.57;;;-3.70;99.90;;;;;;4980066;28;20113;-81
2022/12/12 06:09:20;;;;;;;21.90;9.07;;;-3.70;99.90;;;;;;4987014;28;20125;-82
2022/12/12 06:11:46;;;;;;;20.27;9.05;;;-3.70;99.90;;;;;;4987066;28;20034;-80
2022/12/12 06:14:11;;;;;;;24.63;8.77;;;-3.60;99.90;;;;;;4986299;28;20030;-81
2022/12/12 06:16:37;;;;;;;21.38;9.25;;;-3.70;99.90;;;;;;4982705;28;20046;-83
2022/12/12 06:19:03;;;;;;;22.40;9.68;;;-3.60;99.90;;;;;;4985987;28;20059;-82
2022/12/12 06:21:29;;;;;;;24.15;9.98;;;-3.60;99.90;;;;;;4988446;28;20023;-82
2022/12/12 06:23:54;;;;;;;26.83;10.38;;;-3.60;99.90;;;;;;4979931;28;20034;-80
2022/12/12 06:26:20;;;;;;;20.58;10.35;;;-3.60;99.90;;;;;;4991152;28;20034;-78
2022/12/12 06:28:46;;;;;;;19.90;8.43;;;-3.60;99.90;;;;;;4989784;28;20026;-81
2022/12/12 06:31:12;;;;;;;20.15;8.75;;;-3.60;99.90;;;;;;4987770;28;20030;-80
2022/12/12 06:33:40;;;;;;;20.23;8.30;;;-3.60;99.90;;;;;;4986384;28;20018;-82
2022/12/12 06:36:17;;;;;;;22.00;8.68;;;-3.60;99.90;;;;;;4989035;28;20030;-80
2022/12/12 06:38:43;;;;;;;20.88;9.48;;;-3.60;99.90;;;;;;4988908;28;20109;-82
2022/12/12 06:41:13;;;;;;;21.17;8.63;;;-3.60;99.90;;;;;;4990831;28;20491;-80
2022/12/12 06:43:40;;;;;;;21.75;9.35;;;-3.60;99.90;;;;;;4985834;28;20110;-82
2022/12/12 06:46:13;;;;;;;24.35;9.43;;;-3.50;99.90;;;;;;4987860;28;20101;-82
2022/12/12 06:48:39;;;;;;;25.15;8.70;;;-3.50;99.90;;;;;;4985875;28;20030;-81
2022/12/12 06:51:06;;;;;;;24.52;9.93;;;-3.50;99.90;;;;;;4986287;28;20117;-82
2022/12/12 06:53:32;;;;;;;24.23;9.88;;;-3.50;99.90;;;;;;4986854;28;20026;-80
2022/12/12 06:55:57;;;;;;;21.70;8.52;;;-3.50;99.90;;;;;;4990456;28;20372;-82
2022/12/12 06:58:23;;;;;;;20.38;9.30;;;-3.40;99.90;;;;;;4989058;28;20041;-82
2022/12/12 07:00:52;;;;;;;19.95;8.77;;;-3.40;99.90;;;;;;4991706;28;20026;-82
2022/12/12 07:03:18;;;;;;;26.42;10.50;;;-3.40;99.90;;;;;;4989493;28;20034;-82
2022/12/12 07:05:47;;;;;;;25.80;9.90;;;-3.40;99.90;;;;;;4988919;28;20034;-82
2022/12/12 07:08:14;;;;;;;22.88;9.25;;;-3.40;99.90;;;;;;4988001;28;20049;-82
2022/12/12 07:10:40;;;;;;;26.63;10.15;;;-3.40;99.90;;;;;;4988958;28;20023;-81
2022/12/12 07:13:06;;;;;;;20.55;9.27;;;-3.40;99.90;;;;;;4990412;28;20418;-81
2022/12/12 07:15:32;;;;;;;19.10;8.38;;;-3.40;99.90;;;;;;4994405;28;20018;-81
2022/12/12 07:17:57;;;;;;;25.00;9.68;;;-3.40;99.90;;;;;;4998263;28;20042;-83
2022/12/12 07:20:23;;;;;;;20.13;8.80;;;-3.40;99.90;;;;;;4996029;28;20068;-80
2022/12/12 07:22:49;;;;;;;21.67;9.18;;;-3.50;99.90;;;;;;5003807;28;20033;-81
2022/12/12 07:25:14;;;;;;;19.83;8.85;;;-3.50;99.90;;;;;;5006535;28;20022;-81
2022/12/12 07:27:40;;;;;;;23.73;9.30;;;-3.50;99.90;;;;;;5007211;28;20027;-81
2022/12/12 07:30:07;;;;;;;21.40;9.77;;;-3.50;99.90;;;;;;5007370;28;20054;-82
2022/12/12 07:32:33;;;;;;;21.92;9.45;;;-3.40;99.90;;;;;;5008869;28;20025;-82
2022/12/12 07:34:58;;;;;;;23.33;9.23;;;-3.50;99.90;;;;;;5000534;28;20038;-82
2022/12/12 07:37:24;;;;;;;23.55;9.55;;;-3.50;99.90;;;;;;4986636;28;20030;-81
2022/12/12 07:39:49;;;;;;;21.42;9.65;;;-3.40;99.90;;;;;;4993826;28;20125;-81
2022/12/12 07:42:15;;;;;;;19.90;9.68;;;-3.40;99.90;;;;;;4993754;28;20379;-82
2022/12/12 07:44:41;;;;;;;24.20;10.07;;;-3.30;99.90;;;;;;4988500;28;20034;-82
2022/12/12 07:47:06;;;;;;;24.70;10.63;;;-3.20;99.90;;;;;;4988388;28;20397;-82
2022/12/12 07:49:32;;;;;;;26.60;10.88;;;-3.20;99.90;;;;;;4989080;28;20471;-82
2022/12/12 07:51:57;;;;;;;25.13;11.65;;;-3.10;99.90;;;;;;4993078;28;20137;-81
2022/12/12 07:54:23;;;;;;;27.88;11.13;;;-3.10;99.90;;;;;;4994246;28;20023;-82
2022/12/12 07:56:49;;;;;;;22.38;10.15;;;-3.00;99.90;;;;;;4991253;28;20479;-82
2022/12/12 07:59:14;;;;;;;23.17;11.18;;;-3.00;99.90;;;;;;4989829;28;20646;-81
2022/12/12 08:01:40;;;;;;;24.55;11.23;;;-2.90;99.90;;;;;;4993764;28;20061;-81
2022/12/12 08:04:05;;;;;;;28.02;11.43;;;-2.80;99.90;;;;;;4995080;28;20431;-82
2022/12/12 08:06:31;;;;;;;23.58;10.23;;;-2.80;99.90;;;;;;4994527;28;20077;-81
2022/12/12 08:08:57;;;;;;;22.75;11.38;;;-2.80;99.90;;;;;;4989956;28;20053;-81
2022/12/12 08:11:24;;;;;;;28.35;11.13;;;-2.70;99.90;;;;;;4991106;28;20030;-82
2022/12/12 08:13:50;;;;;;;26.90;12.00;;;-2.70;99.90;;;;;;4990134;28;20018;-81
2022/12/12 08:16:22;;;;;;;25.83;11.43;;;-2.70;99.90;;;;;;4988620;28;20049;-82
2022/12/12 08:18:48;;;;;;;26.05;11.32;;;-2.60;99.90;;;;;;4989906;28;22782;-83
2022/12/12 08:21:15;;;;;;;23.95;11.38;;;-2.60;99.90;;;;;;4983064;28;20026;-84
2022/12/12 08:23:41;;;;;;;26.75;13.35;;;-2.50;99.90;;;;;;4982765;28;20027;-83
2022/12/12 08:26:13;;;;;;;28.58;12.35;;;-2.40;99.90;;;;;;4981210;28;20037;-84
2022/12/12 08:28:40;;;;;;;26.02;11.50;;;-2.40;99.90;;;;;;4979886;28;20030;-83
2022/12/12 08:31:07;;;;;;;27.90;12.48;;;-2.40;99.90;;;;;;4990184;28;20599;-82
2022/12/12 08:33:33;;;;;;;21.92;11.18;;;-2.40;99.90;;;;;;4991711;28;20026;-82
2022/12/12 08:35:59;;;;;;;34.13;13.10;;;-2.40;99.90;;;;;;4995619;28;20482;-82
2022/12/12 08:38:24;;;;;;;29.00;13.32;;;-2.30;99.90;;;;;;4988981;28;20031;-82
2022/12/12 08:40:50;;;;;;;26.52;11.93;;;-2.30;99.90;;;;;;4982328;28;20019;-82
2022/12/12 08:43:16;;;;;;;25.63;13.07;;;-2.30;99.90;;;;;;4982103;28;20145;-79
2022/12/12 08:45:41;;;;;;;24.55;11.23;;;-2.40;99.90;;;;;;4978550;28;20027;-80
2022/12/12 08:48:09;;;;;;;22.65;12.05;;;-2.40;99.90;;;;;;4983407;28;20475;-79
2022/12/12 08:50:35;;;;;;;23.95;11.73;;;-2.40;99.90;;;;;;4983504;28;20029;-80
2022/12/12 08:53:01;;;;;;;27.48;12.55;;;-2.40;99.90;;;;;;4991615;28;20101;-80
2022/12/12 08:55:26;;;;;;;27.60;11.52;;;-2.50;99.90;;;;;;4986063;28;20033;-81
2022/12/12 08:57:52;;;;;;;25.95;12.57;;;-2.50;99.90;;;;;;4983933;28;20034;-80
2022/12/12 09:00:18;;;;;;;28.15;12.75;;;-2.60;99.90;;;;;;4955258;28;20398;-80
2022/12/12 09:02:43;;;;;;;28.02;12.18;;;-2.50;99.90;;;;;;5015602;28;20061;-82
2022/12/12 09:05:09;;;;;;;29.08;13.48;;;-2.50;99.90;;;;;;5009400;28;20418;-80
2022/12/12 09:07:36;;;;;;;27.65;12.90;;;-2.50;99.90;;;;;;5005508;28;20064;-81
2022/12/12 09:10:03;;;;;;;23.75;11.38;;;-2.50;99.90;;;;;;5006352;28;20487;-81
2022/12/12 09:12:29;;;;;;;33.28;12.98;;;-2.50;99.90;;;;;;5009721;28;21279;-81
2022/12/12 09:14:55;;;;;;;23.95;10.73;;;-2.40;99.90;;;;;;5011707;28;20032;-82
2022/12/12 09:17:21;;;;;;;24.75;10.63;;;-2.40;99.90;;;;;;5008349;28;20029;-81
2022/12/12 09:19:46;;;;;;;26.20;11.23;;;-2.40;99.90;;;;;;5013457;28;20302;-85
2022/12/12 09:22:12;;;;;;;22.52;10.50;;;-2.40;99.90;;;;;;5015986;28;20429;-85
2022/12/12 09:24:38;;;;;;;19.08;9.77;;;-2.40;99.90;;;;;;5045985;28;20768;-84
2022/12/12 09:27:03;;;;;;;22.98;10.35;;;-2.30;99.90;;;;;;5015463;28;20142;-84
2022/12/12 09:29:29;;;;;;;20.50;9.65;;;-2.30;99.90;;;;;;5006368;28;20045;-84
2022/12/12 09:31:55;;;;;;;24.80;10.15;;;-2.30;99.90;;;;;;5015801;28;20022;-84
2022/12/12 09:34:20;;;;;;;21.75;10.93;;;-2.20;99.90;;;;;;5014465;28;20029;-84
2022/12/12 09:36:46;;;;;;;19.50;9.23;;;-2.20;99.90;;;;;;5014058;28;20037;-83
2022/12/12 09:39:11;;;;;;;20.13;10.13;;;-2.10;99.90;;;;;;5008504;28;20736;-83
2022/12/12 09:41:37;;;;;;;20.88;9.52;;;-2.00;99.90;;;;;;5010137;28;20105;-84
2022/12/12 09:44:11;;;;;;;23.58;9.25;;;-2.00;99.90;;;;;;5009560;28;20037;-84
2022/12/12 09:46:36;;;;;;;;;;;-2.10;99.90;;;;;;5007752;28;20063;-84
2022/12/12 09:49:28;;;;;;;20.17;9.05;;;-2.10;99.90;;;;;;5012324;28;19909;-85
2022/12/12 09:51:55;;;;;;;35.42;10.40;;;-2.10;99.90;;;;;;5018461;28;20030;-85
2022/12/12 09:54:25;;;;;;;21.33;9.68;;;-2.10;99.90;;;;;;5012336;28;20478;-85
2022/12/12 09:57:25;;;;;;;20.52;9.63;;;-2.00;99.90;;;;;;5011297;28;20030;-85
2022/12/12 10:00:00;;;;;;;24.40;10.82;;;-1.90;99.90;;;;;;5001279;28;20034;-85
2022/12/12 10:02:41;;;;;;;23.42;11.23;;;-1.90;99.90;;;;;;5007326;28;20041;-85
2022/12/12 10:05:12;;;;;;;19.10;9.77;;;-1.80;99.90;;;;;;5008409;28;20088;-84
2022/12/12 10:07:45;;;;;;;21.65;10.32;;;-1.70;99.90;;;;;;5005992;28;20152;-82
2022/12/12 10:10:26;;;;;;;24.65;10.70;;;-1.70;99.90;;;;;;5010970;28;20110;-85
2022/12/12 10:12:54;;;;;;;25.63;10.77;;;-1.70;99.90;;;;;;5043443;28;20113;-85
2022/12/12 10:15:41;;;;;;;21.48;9.43;;;-1.50;99.90;;;;;;5009574;28;20034;-85
2022/12/12 10:18:16;;;;;;;20.42;9.32;;;-1.40;99.90;;;;;;5010550;28;20085;-84
2022/12/12 10:20:50;;;;;;;19.88;9.43;;;-1.30;99.90;;;;;;5040510;28;20398;-81
2022/12/12 10:23:34;;;;;;;19.65;9.63;;;-1.30;99.90;;;;;;5010206;28;20026;-82
2022/12/12 10:26:14;;;;;;;23.67;10.40;;;-1.20;99.90;;;;;;5011365;28;20081;-81
2022/12/12 10:28:39;;;;;;;21.35;10.65;;;-1.10;99.90;;;;;;5013303;28;20030;-81
2022/12/12 10:31:11;;;;;;;23.45;11.43;;;-1.00;99.90;;;;;;5015550;28;20151;-80
2022/12/12 10:34:10;;;;;;;21.58;9.93;;;-1.00;99.90;;;;;;5019073;28;20030;-80
2022/12/12 10:37:04;;;;;;;22.95;10.55;;;-1.00;99.90;;;;;;5011067;28;20045;-80
2022/12/12 10:39:41;;;;;;;19.33;10.75;;;-0.90;99.90;;;;;;5013806;28;20035;-82
2022/12/12 10:42:24;;;;;;;18.77;9.93;;;-0.80;99.90;;;;;;5014097;28;20036;-82
2022/12/12 10:45:01;;;;;;;18.17;9.35;;;-0.80;99.90;;;;;;5020650;28;20033;-81
2022/12/12 10:47:27;;;;;;;23.77;10.45;;;-0.70;99.90;;;;;;5018533;28;20090;-82
2022/12/12 10:50:01;;;;;;;20.60;9.80;;;-0.60;99.90;;;;;;5023481;28;20042;-82
2022/12/12 10:52:27;;;;;;;22.40;10.43;;;-0.60;99.90;;;;;;5025242;28;20076;-81
2022/12/12 10:55:00;;;;;;;24.88;12.00;;;-0.60;99.90;;;;;;5025823;28;20030;-81
2022/12/12 10:57:27;;;;;;;17.92;9.57;;;-0.50;99.90;;;;;;5020711;28;20028;-81
2022/12/12 10:59:56;;;;;;;19.83;9.90;;;-0.50;99.90;;;;;;5020538;28;20137;-81
2022/12/12 11:02:22;;;;;;;18.73;9.18;;;-0.40;99.90;;;;;;5011731;28;20034;-81
2022/12/12 11:04:48;;;;;;;19.52;9.52;;;-0.40;99.90;;;;;;5018612;28;20032;-82
2022/12/12 11:07:21;;;;;;;23.30;9.65;;;-0.40;99.90;;;;;;5012653;28;20084;-81
2022/12/12 11:09:47;;;;;;;25.70;10.55;;;-0.40;99.90;;;;;;5004585;28;20022;-81
2022/12/12 11:12:15;;;;;;;20.77;10.32;;;-0.40;99.90;;;;;;5002804;28;20108;-81
2022/12/12 11:14:47;;;;;;;21.00;10.02;;;-0.40;99.90;;;;;;5011383;28;20034;-82
2022/12/12 11:17:27;;;;;;;19.38;9.88;;;-0.50;99.90;;;;;;5004215;28;20031;-81
2022/12/12 11:19:58;;;;;;;22.27;10.10;;;-0.50;99.90;;;;;;5015170;28;20026;-81
2022/12/12 11:22:25;;;;;;;17.85;9.23;;;-0.50;99.90;;;;;;5008759;28;20057;-81
2022/12/12 11:24:51;;;;;;;22.13;10.07;;;-0.50;99.90;;;;;;5014583;28;20026;-82
2022/12/12 11:27:28;;;;;;;22.33;10.85;;;-0.40;99.90;;;;;;5017250;28;20652;-81
2022/12/12 11:30:03;;;;;;;18.00;9.27;;;-0.40;99.90;;;;;;5008012;23;20052;-77
2022/12/12 11:32:38;;;;;;;20.45;10.88;;;-0.40;99.90;;;;;;5011859;28;20048;-77
2022/12/12 11:35:10;;;;;;;21.60;9.85;;;-0.40;99.90;;;;;;4981961;28;20520;-77
2022/12/12 11:37:47;;;;;;;24.33;11.25;;;-0.40;99.90;;;;;;4988055;28;20518;-77
2022/12/12 11:40:26;;;;;;;19.40;9.43;;;-0.40;99.90;;;;;;5006419;28;20026;-77
2022/12/12 11:43:26;;;;;;;21.95;10.07;;;-0.40;99.90;;;;;;5014062;28;21157;-77
2022/12/12 11:46:13;;;;;;;22.63;10.20;;;-0.40;99.90;;;;;;5010558;28;20032;-77
2022/12/12 11:48:51;;;;;;;19.50;9.15;;;-0.40;99.90;;;;;;5009340;28;20474;-77
2022/12/12 11:51:32;;;;;;;23.13;10.32;;;-0.40;99.90;;;;;;5005235;28;20039;-77
2022/12/12 11:53:58;;;;;;;22.77;10.88;;;-0.40;99.90;;;;;;5012737;28;20075;-77
2022/12/12 11:56:45;;;;;;;20.13;9.68;;;-0.40;99.90;;;;;;5014012;28;20486;-78
2022/12/12 11:59:27;;;;;;;20.60;9.80;;;-0.40;99.90;;;;;;5008000;28;20194;-77
2022/12/12 12:02:34;;;;;;;19.92;10.75;;;-0.40;99.90;;;;;;5019034;28;20033;-77
2022/12/12 12:05:08;;;;;;;16.65;9.68;;;-0.40;99.90;;;;;;5011546;28;20030;-77
2022/12/12 12:08:06;;;;;;;19.35;10.10;;;-0.40;99.90;;;;;;5008723;28;20482;-77
2022/12/12 12:11:19;;;;;;;21.30;10.80;;;-0.40;99.90;;;;;;4954477;28;20518;-77
2022/12/12 12:14:11;;;;;;;21.95;10.48;;;-0.40;99.90;;;;;;4870545;29;20043;-77
2022/12/12 12:16:40;;;;;;;22.92;10.73;;;-0.40;99.90;;;;;;4930378;29;20035;-77
2022/12/12 12:19:28;;;;;;;23.27;10.98;;;-0.40;99.90;;;;;;4986532;28;20041;-77
2022/12/12 12:22:25;;;;;;;20.77;10.30;;;-0.30;99.90;;;;;;5012458;28;20078;-77
2022/12/12 12:25:07;;;;;;;20.65;10.35;;;-0.40;99.90;;;;;;4987792;28;20349;-77
2022/12/12 12:27:49;;;;;;;21.40;11.05;;;-0.40;99.90;;;;;;4999984;28;20030;-77
2022/12/12 12:30:33;;;;;;;20.88;9.57;;;-0.30;99.90;;;;;;5011309;28;20045;-77
2022/12/12 12:33:11;;;;;;;21.23;10.50;;;-0.40;99.90;;;;;;5013228;28;20552;-77
2022/12/12 12:36:06;;;;;;;27.45;11.93;;;-0.40;99.90;;;;;;5004530;28;20375;-77
2022/12/12 12:38:58;;;;;;;20.42;10.43;;;-0.40;99.90;;;;;;5007621;28;20026;-77
2022/12/12 12:41:37;;;;;;;26.38;12.05;;;-0.40;99.90;;;;;;5007761;28;20108;-77
2022/12/12 12:44:26;;;;;;;27.52;12.10;;;-0.40;99.90;;;;;;5008291;28;20021;-77
2022/12/12 12:47:00;;;;;;;21.83;10.60;;;-0.40;99.90;;;;;;5005195;28;20033;-77
2022/12/12 12:49:28;;;;;;;21.40;11.77;;;-0.40;99.90;;;;;;5012338;28;20045;-77
2022/12/12 12:52:16;;;;;;;26.52;13.52;;;-0.40;99.90;;;;;;5013836;28;20545;-77
2022/12/12 12:54:46;;;;;;;27.85;11.85;;;-0.40;99.90;;;;;;5007366;28;20026;-78
2022/12/12 12:57:37;;;;;;;28.30;11.57;;;-0.40;99.90;;;;;;5008757;28;20545;-77
2022/12/12 13:00:14;;;;;;;21.83;10.88;;;-0.40;99.90;;;;;;5006612;28;20379;-77
2022/12/12 13:03:09;;;;;;;27.00;11.63;;;-0.40;99.90;;;;;;5011167;28;20371;-77
2022/12/12 13:05:42;;;;;;;21.55;10.45;;;-0.30;99.90;;;;;;5011947;28;20030;-77
2022/12/12 13:08:27;;;;;;;23.45;10.25;;;-0.40;99.90;;;;;;5010730;28;20030;-77
2022/12/12 13:10:58;;;;;;;27.90;12.00;;;-0.30;99.90;;;;;;5011328;28;20033;-77
2022/12/12 13:13:28;;;;;;;24.08;11.27;;;-0.30;99.90;;;;;;5009053;28;20129;-77
2022/12/12 13:16:03;;;;;;;22.88;10.63;;;-0.30;99.90;;;;;;5012111;28;20022;-79
2022/12/12 13:18:30;;;;;;;22.58;11.75;;;-0.30;99.90;;;;;;5006237;28;20959;-77